createdAt,value
2019-05-16T00:07:04.946Z,2.75
2019-05-16T00:17:08.347Z,2.73
2019-05-16T00:27:09.805Z,2.70
2019-05-16T00:37:11.371Z,2.78
2019-05-16T00:47:13.212Z,2.78
2019-05-16T00:57:15.250Z,3.07
2019-05-16T01:07:18.700Z,2.64
2019-05-16T01:17:20.056Z,2.67
2019-05-16T01:27:21.490Z,2.72
2019-05-16T01:37:22.935Z,2.29
2019-05-16T01:47:24.374Z,1.90
2019-05-16T01:57:28.262Z,1.82
2019-05-16T02:07:29.838Z,1.47
2019-05-16T02:17:31.275Z,1.32
2019-05-16T02:27:32.709Z,1.27
2019-05-16T02:37:35.237Z,1.14
2019-05-16T02:47:36.946Z,1.06
2019-05-16T02:57:41.528Z,2.04
2019-05-16T03:07:46.865Z,1.77
2019-05-16T03:17:50.744Z,0.90
2019-05-16T03:27:52.505Z,0.85
2019-05-16T03:37:59.709Z,0.74
2019-05-16T03:47:57.707Z,0.76
2019-05-16T03:58:01.097Z,0.65
2019-05-16T04:08:15.261Z,1.11
2019-05-16T04:18:07.224Z,0.99
2019-05-16T04:28:11.453Z,2.49
2019-05-16T04:38:28.632Z,2.20
2019-05-16T04:48:15.744Z,2.52
2019-05-16T04:58:22.626Z,2.47
2019-05-16T05:08:22.476Z,3.13
2019-05-16T05:18:24.249Z,3.15
2019-05-16T05:28:25.693Z,3.46
2019-05-16T05:38:27.103Z,4.05
2019-05-16T05:48:30.876Z,7.16
2019-05-16T05:58:31.989Z,15.86
2019-05-16T06:08:33.488Z,22.62
2019-05-16T06:18:34.958Z,27.03
2019-05-16T06:28:41.054Z,29.60
2019-05-16T06:38:41.764Z,31.98
2019-05-16T06:48:43.204Z,28.26
2019-05-16T06:58:48.329Z,25.69
2019-05-16T07:08:50.519Z,29.78
2019-05-16T07:18:51.550Z,33.26
2019-05-16T07:28:53.058Z,20.99
2019-05-16T07:38:54.712Z,18.78
2019-05-16T07:48:56.156Z,14.25
2019-05-16T07:58:57.985Z,14.77
2019-05-16T08:09:00.304Z,13.71
2019-05-16T08:19:01.976Z,16.71
2019-05-16T08:29:03.549Z,13.28
2019-05-16T08:39:06.601Z,13.35
2019-05-16T08:49:12.015Z,13.51
2019-05-16T08:59:13.699Z,15.14
2019-05-16T09:09:29.702Z,15.68
2019-05-16T09:19:18.581Z,15.54
2019-05-16T09:29:20.412Z,18.90
2019-05-16T09:39:23.055Z,16.40
2019-05-16T09:49:26.198Z,19.19
2019-05-16T09:59:27.672Z,24.85
2019-05-16T10:09:41.162Z,20.90
2019-05-16T10:19:32.562Z,17.18
2019-05-16T10:29:34.121Z,13.45
2019-05-16T10:39:37.391Z,13.43
2019-05-16T10:49:41.964Z,15.42
2019-05-16T11:00:09.687Z,14.20
2019-05-16T11:09:55.751Z,15.56
2019-05-16T11:19:50.018Z,16.55
2019-05-16T11:29:51.447Z,18.06
2019-05-16T11:39:52.982Z,18.59
2019-05-16T11:49:56.941Z,19.21
2019-05-16T11:59:57.737Z,16.88
2019-05-16T12:09:59.185Z,17.36
2019-05-16T12:20:00.951Z,15.95
2019-05-16T12:30:13.013Z,16.84
2019-05-16T12:40:10.235Z,15.77
2019-05-16T12:50:12.973Z,15.72
2019-05-16T13:00:16.354Z,15.53
2019-05-16T13:10:19.265Z,18.47
2019-05-16T13:20:21.992Z,16.05
2019-05-16T13:30:26.701Z,16.91
2019-05-16T13:40:27.769Z,17.09
2019-05-16T13:50:29.718Z,15.09
2019-05-16T14:00:31.343Z,15.16
2019-05-16T14:10:32.775Z,16.00
2019-05-16T14:20:34.233Z,16.60
2019-05-16T14:30:37.281Z,15.80
2019-05-16T14:40:39.100Z,17.16
2019-05-16T14:50:41.341Z,16.78
2019-05-16T15:00:42.787Z,18.19
2019-05-16T15:10:46.750Z,17.75
2019-05-16T15:20:49.175Z,15.84
2019-05-16T15:30:50.951Z,17.49
2019-05-16T15:40:53.748Z,17.52
2019-05-16T15:50:59.502Z,16.27
2019-05-16T16:01:00.187Z,16.23
2019-05-16T16:11:01.701Z,14.44
2019-05-16T16:21:07.676Z,14.64
2019-05-16T16:31:09.379Z,15.07
2019-05-16T16:41:10.822Z,14.55
2019-05-16T16:51:12.697Z,13.86
2019-05-16T17:01:14.353Z,13.84
2019-05-16T17:11:15.887Z,13.53
2019-05-16T17:21:17.465Z,13.10
2019-05-16T17:31:18.934Z,12.87
2019-05-16T17:41:20.457Z,13.02
2019-05-16T17:51:22.109Z,12.88
2019-05-16T18:01:23.892Z,12.50
2019-05-16T18:11:26.780Z,12.91
2019-05-16T18:21:28.480Z,12.53
2019-05-16T18:31:32.169Z,11.65
2019-05-16T18:41:33.281Z,11.00
2019-05-16T18:51:36.880Z,10.71
2019-05-16T19:01:38.411Z,10.49
2019-05-16T19:11:40.278Z,9.88
2019-05-16T19:21:41.717Z,9.32
2019-05-16T19:31:43.424Z,8.99
2019-05-16T19:41:46.633Z,8.48
2019-05-16T19:51:49.093Z,7.93
2019-05-16T20:01:50.677Z,7.43
2019-05-16T20:11:52.371Z,6.81
2019-05-16T20:21:54.054Z,6.49
2019-05-16T20:31:56.447Z,6.19
2019-05-16T20:41:59.678Z,6.68
2019-05-16T20:52:01.496Z,5.84
2019-05-16T21:02:06.827Z,5.21
2019-05-16T21:12:08.513Z,5.05
2019-05-16T21:22:09.933Z,4.86
2019-05-16T21:32:11.592Z,4.63
2019-05-16T21:42:13.715Z,4.17
2019-05-16T21:52:15.172Z,3.98
2019-05-16T22:02:18.531Z,3.70
2019-05-16T22:12:20.466Z,3.73
2019-05-16T22:22:29.760Z,3.47
2019-05-16T22:32:29.462Z,3.21
2019-05-16T22:42:30.978Z,3.27
2019-05-16T22:52:32.596Z,3.35
2019-05-16T23:02:34.347Z,2.90
2019-05-16T23:12:37.159Z,3.10
2019-05-16T23:22:38.806Z,3.04
2019-05-16T23:32:40.267Z,2.74
2019-05-16T23:42:42.081Z,2.56
2019-05-16T23:52:43.506Z,2.34
